»·PEaware :: UAL343 KLAS-KLAX

UAL343 :: KLAS-KLAX

FLIGHT INFORMATION

Flight Status: Arrived
Operator:
United Airlines
More flights by this operator :: More flights under this callsign
Pilot: Pietro M. (286)
Aircraft: CANADAIR CL-600 CRJ-100
(CRJ1)
More flights by this aircraft type
Origin: KLAS McCarran Intl
United States
Destination: KLAX Los Angeles Intl
United States
More flights between these airports :: More routes between these airports
Route: +MCCRN3 HEC RIIVR2
File this flight plan on PilotEdge
Remarks: FIRST FLIGHT ON PILOTEDGE
Altitude:
(Current/Filed)
22,000ft
Speed:
(Current/Filed)
350kts
Departed: 03-Jun-11 12:48 PM
Arrived: 03-Jun-11 01:32 PM
Distance/Time
Traveled:
205nm/0:44
Distance/Time
To Go:
Arrived

Flight Plot

Page will automatically refresh every two minutes.


Map Options




Map Legend


Flown Route
Filed Route
Departure Airport
Arrival Airport
Navaid (VOR, NDB)
Fix

Horizontal Profiles

Position Reports

Time Latitude Longitude Heading Altitude Ground
Speed
03-Jun-11 12:34 36.085786 -115.154590 154 2145ft 0kts
03-Jun-11 12:35 36.085786 -115.154590 154 2145ft 0kts
03-Jun-11 12:36 36.085786 -115.154590 154 2145ft 0kts
03-Jun-11 12:37 36.085786 -115.154590 154 2145ft 0kts
03-Jun-11 12:38 36.085947 -115.154682 154 2145ft 4kts
03-Jun-11 12:39 36.086389 -115.155408 26 2145ft 0kts
03-Jun-11 12:40 36.086389 -115.155408 26 2145ft 0kts
03-Jun-11 12:41 36.086389 -115.155408 26 2145ft 0kts
03-Jun-11 12:42 36.086581 -115.155320 18 2145ft 7kts
03-Jun-11 12:43 36.092952 -115.154587 21 2145ft 23kts
03-Jun-11 12:44 36.097556 -115.152042 355 2145ft 14kts
03-Jun-11 12:45 36.098039 -115.152419 299 2145ft 0kts
03-Jun-11 12:46 36.073465 -115.167420 203 2711ft 236kts
03-Jun-11 12:47 36.008516 -115.202754 194 4745ft 264kts
03-Jun-11 12:48 35.945769 -115.223515 193 6522ft 268kts
03-Jun-11 12:49 35.874866 -115.246374 194 8514ft 268kts
03-Jun-11 12:50 35.799752 -115.266659 193 10523ft 286kts
03-Jun-11 12:51 35.726808 -115.303224 222 12547ft 296kts
03-Jun-11 12:52 35.664731 -115.371567 225 14544ft 309kts
03-Jun-11 12:53 35.601531 -115.446259 226 16562ft 322kts
03-Jun-11 12:54 35.534913 -115.521785 202 18571ft 339kts
03-Jun-11 12:55 35.460861 -115.590932 230 20682ft 348kts
03-Jun-11 12:56 35.395115 -115.678773 229 22057ft 384kts
03-Jun-11 12:57 35.331989 -115.762500 229 22052ft 430kts
03-Jun-11 12:58 35.263457 -115.853003 229 21995ft 405kts
03-Jun-11 13:00 35.134527 -116.022898 229 21999ft 413kts
03-Jun-11 13:01 35.063336 -116.116361 229 21999ft 419kts
03-Jun-11 13:02 34.990184 -116.212093 229 22000ft 422kts
03-Jun-11 13:03 34.914020 -116.311470 229 22001ft 424kts
03-Jun-11 13:04 34.835870 -116.413101 229 22012ft 440kts
03-Jun-11 13:05 34.750406 -116.507981 220 22008ft 436kts
03-Jun-11 13:06 34.663839 -116.588990 219 21514ft 430kts
03-Jun-11 13:07 34.575327 -116.672049 220 20566ft 422kts
03-Jun-11 13:08 34.502661 -116.740281 220 19776ft 417kts
03-Jun-11 13:09 34.416179 -116.821292 219 18819ft 410kts
03-Jun-11 13:10 34.334406 -116.897691 219 18030ft 404kts
03-Jun-11 13:11 34.253779 -116.972827 219 18009ft 404kts
03-Jun-11 13:12 34.172202 -117.048664 219 18008ft 404kts
03-Jun-11 13:13 34.097054 -117.133159 243 17087ft 388kts
03-Jun-11 13:14 34.050367 -117.239070 248 14965ft 346kts
03-Jun-11 13:15 34.040236 -117.331324 265 14006ft 302kts
03-Jun-11 13:16 34.031716 -117.424784 264 12204ft 290kts
03-Jun-11 13:17 34.023712 -117.515219 263 12009ft 286kts
03-Jun-11 13:18 34.017731 -117.580540 262 12009ft 288kts
03-Jun-11 13:19 34.008522 -117.673932 262 11355ft 288kts
03-Jun-11 13:20 33.999314 -117.766774 263 9933ft 284kts
03-Jun-11 13:21 33.990909 -117.852756 263 8657ft 247kts
03-Jun-11 13:22 33.983027 -117.932818 264 7369ft 242kts
03-Jun-11 13:23 33.975291 -118.011690 263 6099ft 235kts
03-Jun-11 13:24 33.967594 -118.088268 263 4873ft 230kts
03-Jun-11 13:25 33.960015 -118.163727 262 3668ft 228kts
03-Jun-11 13:26 33.952434 -118.238142 262 2558ft 191kts
03-Jun-11 13:27 33.947531 -118.285827 261 1725ft 143kts
03-Jun-11 13:28 33.943090 -118.328439 262 1049ft 145kts
03-Jun-11 13:29 33.938252 -118.375642 262 280ft 125kts
03-Jun-11 13:30 33.936142 -118.398098 279 130ft 7kts
03-Jun-11 13:31 33.936550 -118.402420 262 130ft 11kts
03-Jun-11 13:32 33.937995 -118.405451 15 130ft 0kts
03-Jun-11 13:33 33.940049 -118.405156 97 130ft 5kts
03-Jun-11 13:34 33.940061 -118.404960 76 130ft 0kts
03-Jun-11 13:35 33.940061 -118.404960 76 130ft 0kts
03-Jun-11 13:36 33.940061 -118.404960 76 130ft 0kts
03-Jun-11 13:37 33.940061 -118.404960 76 130ft 0kts

Navigation Log

Ident Type
Flight plan parsing failed, navigation log unavailable